Time;durP1;ratioP1;P1;durP2;ratioP2;P2;SDS_P1;SDS_P2;PMS_P1;PMS_P2;Temp;Humidity;BMP_temperature;BMP_pressure;BME280_temperature;BME280_humidity;BME280_pressure;Samples;Min_cycle;Max_cycle;Signal;HPM_P1;HPM_P2
2021/06/05 00:01:37;;;;;;;105.85;55.53;;;17.60;99.90;;;;;;4975162;28;20030;-71
2021/06/05 00:04:04;;;;;;;104.13;55.00;;;17.60;99.90;;;;;;4973931;28;20049;-71
2021/06/05 00:06:30;;;;;;;102.30;56.08;;;17.60;99.90;;;;;;4975363;28;20045;-72
2021/06/05 00:08:56;;;;;;;103.80;52.60;;;17.60;99.90;;;;;;4975102;28;20031;-71
2021/06/05 00:11:25;;;;;;;100.75;53.20;;;17.60;99.90;;;;;;4976245;28;20031;-71
2021/06/05 00:13:57;;;;;;;109.68;54.70;;;17.60;99.90;;;;;;4975256;28;20465;-71
2021/06/05 00:19:17;;;;;;;107.65;51.65;;;17.50;99.90;;;;;;4975729;28;20081;-72
2021/06/05 00:21:43;;;;;;;113.43;55.58;;;17.50;99.90;;;;;;4975969;28;20034;-72
2021/06/05 00:24:10;;;;;;;107.75;51.97;;;17.50;99.90;;;;;;4968796;28;20074;-72
2021/06/05 00:26:36;;;;;;;113.82;54.90;;;17.50;99.90;;;;;;4968783;28;20049;-71
2021/06/05 00:29:02;;;;;;;115.15;54.75;;;17.60;99.90;;;;;;4979062;28;20077;-71
2021/06/05 00:31:29;;;;;;;110.60;52.53;;;17.50;99.90;;;;;;4976450;28;20027;-71
2021/06/05 00:33:55;;;;;;;114.43;53.50;;;17.60;99.90;;;;;;4975027;28;20043;-72
2021/06/05 00:36:20;;;;;;;110.85;51.55;;;17.50;99.90;;;;;;4974772;28;20134;-71
2021/06/05 00:38:46;;;;;;;108.43;51.22;;;17.50;99.90;;;;;;4990467;28;20022;-72
2021/06/05 00:41:16;;;;;;;110.18;50.83;;;17.50;99.90;;;;;;4979244;28;20022;-71
2021/06/05 00:43:47;;;;;;;117.32;53.58;;;17.50;99.90;;;;;;4985217;28;20109;-71
2021/06/05 00:46:15;;;;;;;103.68;51.85;;;17.50;99.90;;;;;;4988512;28;20034;-71
2021/06/05 00:48:41;;;;;;;103.53;49.45;;;17.50;99.90;;;;;;4990707;28;20483;-71
2021/06/05 00:51:07;;;;;;;116.35;50.85;;;17.50;99.90;;;;;;4988461;28;20037;-71
2021/06/05 00:53:34;;;;;;;109.63;50.42;;;17.50;99.90;;;;;;4977191;28;20395;-72
2021/06/05 00:56:01;;;;;;;109.70;50.90;;;17.50;99.90;;;;;;4981907;28;20042;-73
2021/06/05 00:58:29;;;;;;;113.28;50.17;;;17.50;99.90;;;;;;4988513;28;20105;-72
2021/06/05 01:01:16;;;;;;;100.57;49.42;;;17.50;99.90;;;;;;4989748;28;20117;-71
2021/06/05 01:03:43;;;;;;;105.43;48.22;;;17.50;99.90;;;;;;4974528;28;20383;-72
2021/06/05 01:06:24;;;;;;;98.25;47.88;;;17.50;99.90;;;;;;4982512;28;20567;-71
2021/06/05 01:09:01;;;;;;;103.32;47.53;;;17.50;99.90;;;;;;4991109;28;20112;-72
2021/06/05 01:11:44;;;;;;;107.32;47.65;;;17.50;99.90;;;;;;4980256;28;20089;-71
2021/06/05 01:14:34;;;;;;;108.13;47.03;;;17.50;99.90;;;;;;4998082;28;20030;-72
2021/06/05 01:17:08;;;;;;;98.05;47.08;;;17.40;99.90;;;;;;4969503;28;20037;-71
2021/06/05 01:19:46;;;;;;;104.88;49.92;;;17.40;99.90;;;;;;4982576;28;20034;-72
2021/06/05 01:22:34;;;;;;;103.57;45.75;;;17.30;99.90;;;;;;4973929;28;20034;-72
2021/06/05 01:25:05;;;;;;;;;;;17.30;99.90;;;;;;4972979;28;20035;-72
2021/06/05 01:27:36;;;;;;;96.57;43.05;;;17.20;99.90;;;;;;4977948;28;19914;-71
2021/06/05 01:30:16;;;;;;;104.63;46.13;;;17.20;99.90;;;;;;4982979;28;20507;-72
2021/06/05 01:32:42;;;;;;;102.13;43.08;;;17.20;99.90;;;;;;4973545;28;20018;-73
2021/06/05 01:35:13;;;;;;;100.53;43.53;;;17.20;99.90;;;;;;4974302;28;20086;-72
2021/06/05 01:37:41;;;;;;;109.93;43.88;;;17.20;99.90;;;;;;4974066;28;20039;-71
2021/06/05 01:40:09;;;;;;;114.53;44.90;;;17.20;99.90;;;;;;4974032;28;20023;-71
2021/06/05 01:42:37;;;;;;;106.32;43.13;;;17.20;99.90;;;;;;4990089;28;20038;-71
2021/06/05 01:45:11;;;;;;;97.40;40.45;;;17.10;99.90;;;;;;4976074;28;20035;-72
2021/06/05 01:47:38;;;;;;;99.68;43.00;;;17.20;99.90;;;;;;4972653;28;20034;-72
2021/06/05 01:50:09;;;;;;;96.72;40.63;;;17.20;99.90;;;;;;4972687;28;20117;-71
2021/06/05 01:52:35;;;;;;;98.30;43.22;;;17.10;99.90;;;;;;4976240;28;20019;-72
2021/06/05 01:55:18;;;;;;;103.22;39.90;;;17.20;99.90;;;;;;4978400;28;20015;-74
2021/06/05 01:57:49;;;;;;;93.45;39.03;;;17.20;99.90;;;;;;4966806;28;20033;-72
2021/06/05 02:00:22;;;;;;;104.80;37.75;;;17.20;99.90;;;;;;4986913;28;20094;-71
2021/06/05 02:02:47;;;;;;;89.28;34.78;;;17.20;99.90;;;;;;4975262;28;20023;-72
2021/06/05 02:05:14;;;;;;;87.75;35.42;;;17.10;99.90;;;;;;4986648;28;20110;-72
2021/06/05 02:07:39;;;;;;;89.38;35.83;;;17.10;99.90;;;;;;4981383;28;20085;-71
2021/06/05 02:10:10;;;;;;;85.38;32.13;;;17.10;99.90;;;;;;4978594;28;20027;-72
2021/06/05 02:12:35;;;;;;;72.75;31.42;;;17.10;99.90;;;;;;4977700;28;20031;-71
2021/06/05 02:15:14;;;;;;;70.07;27.23;;;17.10;99.90;;;;;;4976782;28;20031;-72
2021/06/05 02:17:41;;;;;;;70.07;28.67;;;17.20;99.90;;;;;;4990721;28;20034;-71
2021/06/05 02:20:15;;;;;;;76.85;29.27;;;17.10;99.90;;;;;;4979161;28;20046;-72
2021/06/05 02:22:43;;;;;;;62.38;25.83;;;17.10;99.90;;;;;;4991604;28;20390;-72
2021/06/05 02:25:11;;;;;;;55.33;25.27;;;17.10;99.90;;;;;;4984891;28;20495;-71
2021/06/05 02:27:37;;;;;;;60.83;26.83;;;17.10;99.90;;;;;;4981104;28;20093;-71
2021/06/05 02:30:07;;;;;;;58.10;25.23;;;17.10;99.90;;;;;;4980936;28;20031;-71
2021/06/05 02:32:33;;;;;;;68.57;24.85;;;17.00;99.90;;;;;;4982204;28;20415;-71
2021/06/05 02:35:00;;;;;;;57.20;25.23;;;17.00;99.90;;;;;;4980459;28;20043;-71
2021/06/05 02:37:29;;;;;;;42.80;18.30;;;17.00;99.90;;;;;;4978423;28;20034;-71
2021/06/05 02:39:57;;;;;;;56.80;24.05;;;17.00;99.90;;;;;;4990637;28;20025;-72
2021/06/05 02:42:24;;;;;;;48.90;22.75;;;17.00;99.90;;;;;;4984794;28;20161;-71
2021/06/05 02:44:55;;;;;;;58.20;23.40;;;17.00;99.90;;;;;;4975413;28;20480;-71
2021/06/05 02:47:23;;;;;;;48.05;21.55;;;17.00;99.90;;;;;;4976873;28;20031;-71
2021/06/05 02:49:49;;;;;;;;;;;17.10;99.90;;;;;;4979663;28;20095;-71
2021/06/05 02:52:30;;;;;;;57.55;23.67;;;17.10;99.90;;;;;;4976920;28;20001;-72
2021/06/05 02:55:10;;;;;;;57.22;24.70;;;17.10;99.90;;;;;;4981463;28;20038;-71
2021/06/05 02:57:37;;;;;;;53.83;23.73;;;17.00;99.90;;;;;;4976406;28;20488;-71
2021/06/05 03:00:09;;;;;;;48.70;23.70;;;17.00;99.90;;;;;;4976865;28;20475;-72
2021/06/05 03:02:34;;;;;;;55.55;24.23;;;17.00;99.90;;;;;;4976097;28;20455;-72
2021/06/05 03:05:00;;;;;;;58.55;25.83;;;17.00;99.90;;;;;;4977528;28;20150;-71
2021/06/05 03:07:25;;;;;;;52.75;25.70;;;17.00;99.90;;;;;;4974479;28;20062;-71
2021/06/05 03:09:51;;;;;;;52.05;25.05;;;17.00;99.90;;;;;;4979760;28;20034;-72
2021/06/05 03:12:17;;;;;;;61.83;25.83;;;17.00;99.90;;;;;;4976166;28;20392;-71
2021/06/05 03:14:42;;;;;;;57.42;25.33;;;16.90;99.90;;;;;;4976291;28;20029;-72
2021/06/05 03:17:10;;;;;;;57.17;25.05;;;17.00;99.90;;;;;;4979908;28;20113;-71
2021/06/05 03:19:36;;;;;;;48.15;23.35;;;17.00;99.90;;;;;;4975054;28;20130;-71
2021/06/05 03:22:02;;;;;;;45.67;24.17;;;17.10;99.90;;;;;;4976688;28;20059;-72
2021/06/05 03:24:27;;;;;;;52.38;23.80;;;17.20;99.90;;;;;;4974723;28;20066;-71
2021/06/05 03:26:55;;;;;;;46.50;22.98;;;17.20;99.90;;;;;;4982938;28;20074;-71
2021/06/05 03:29:22;;;;;;;55.47;24.92;;;17.20;99.90;;;;;;4988530;28;20125;-72
2021/06/05 03:31:48;;;;;;;50.20;22.63;;;17.30;99.90;;;;;;4975281;28;20384;-71
2021/06/05 03:34:14;;;;;;;46.55;22.35;;;17.30;99.90;;;;;;4974404;28;20187;-72
2021/06/05 03:36:40;;;;;;;52.58;23.83;;;17.30;99.90;;;;;;4974162;28;20499;-71
2021/06/05 03:39:06;;;;;;;51.88;22.30;;;17.40;99.90;;;;;;4978387;28;20023;-71
2021/06/05 03:41:33;;;;;;;53.65;25.13;;;17.40;99.90;;;;;;4976131;28;20073;-72
2021/06/05 03:43:59;;;;;;;53.37;24.53;;;17.40;99.90;;;;;;4974356;28;20023;-71
2021/06/05 03:46:24;;;;;;;55.78;24.52;;;17.30;99.90;;;;;;4979871;28;20293;-71
2021/06/05 03:48:50;;;;;;;50.33;22.88;;;17.30;99.90;;;;;;4992560;28;20510;-71
2021/06/05 03:51:16;;;;;;;51.22;23.48;;;17.20;99.90;;;;;;4991466;28;20042;-71
2021/06/05 03:53:42;;;;;;;54.20;24.48;;;17.20;99.90;;;;;;4975318;28;20027;-72
2021/06/05 03:56:07;;;;;;;50.05;22.60;;;17.20;99.90;;;;;;4975376;28;20472;-71
2021/06/05 03:58:39;;;;;;;47.55;22.77;;;17.20;99.90;;;;;;4975831;28;20026;-72
2021/06/05 04:01:10;;;;;;;51.13;23.95;;;17.20;99.90;;;;;;4983137;28;20014;-73
2021/06/05 04:03:35;;;;;;;53.63;25.52;;;17.20;99.90;;;;;;4969953;28;20022;-71
2021/06/05 04:06:02;;;;;;;58.70;25.77;;;17.10;99.90;;;;;;4981124;28;20554;-71
2021/06/05 04:08:27;;;;;;;52.13;24.75;;;17.10;99.90;;;;;;4974290;28;20422;-71
2021/06/05 04:10:53;;;;;;;52.78;24.98;;;17.00;99.90;;;;;;4983697;28;20125;-71
2021/06/05 04:13:37;;;;;;;54.42;25.45;;;17.00;99.90;;;;;;4973964;28;20435;-70
2021/06/05 04:16:04;;;;;;;62.15;25.25;;;17.00;99.90;;;;;;4991248;28;20038;-71
2021/06/05 04:18:33;;;;;;;55.03;25.30;;;16.90;99.90;;;;;;4983883;28;20038;-71
2021/06/05 04:21:00;;;;;;;58.10;26.83;;;16.90;99.90;;;;;;4985664;28;20315;-72
2021/06/05 04:23:26;;;;;;;58.25;26.65;;;16.80;99.90;;;;;;4971840;28;20361;-71
2021/06/05 04:25:52;;;;;;;56.63;26.13;;;16.90;99.90;;;;;;4971755;28;20027;-71
2021/06/05 04:28:20;;;;;;;58.22;25.50;;;16.80;99.90;;;;;;4955863;29;20086;-71
2021/06/05 04:30:46;;;;;;;60.08;26.10;;;16.80;99.90;;;;;;4971943;28;20073;-71
2021/06/05 04:33:14;;;;;;;53.28;26.73;;;16.80;99.90;;;;;;4973328;28;20019;-71
2021/06/05 04:35:40;;;;;;;54.88;26.00;;;16.90;99.90;;;;;;4972453;28;20165;-72
2021/06/05 04:38:07;;;;;;;59.70;27.60;;;16.90;99.90;;;;;;4974688;28;20022;-71
2021/06/05 04:40:33;;;;;;;58.53;26.40;;;16.90;99.90;;;;;;4973461;28;20027;-71
2021/06/05 04:42:59;;;;;;;59.15;26.95;;;16.90;99.90;;;;;;4973637;28;20499;-71
2021/06/05 04:45:24;;;;;;;54.05;26.35;;;16.90;99.90;;;;;;4962474;28;20106;-69
2021/06/05 04:47:53;;;;;;;57.13;27.05;;;16.90;99.90;;;;;;4968794;28;20035;-69
2021/06/05 04:50:22;;;;;;;65.63;29.27;;;16.90;99.90;;;;;;4972883;28;20043;-69
2021/06/05 04:52:48;;;;;;;60.50;28.55;;;16.90;99.90;;;;;;4973722;28;20042;-69
2021/06/05 04:55:14;;;;;;;55.38;26.05;;;16.90;99.90;;;;;;4974353;28;20476;-71
2021/06/05 04:57:39;;;;;;;54.60;25.80;;;17.00;99.90;;;;;;4974291;28;20038;-70
2021/06/05 05:00:08;;;;;;;55.20;26.90;;;17.00;99.90;;;;;;4972799;28;20053;-70
2021/06/05 05:02:33;;;;;;;52.03;25.50;;;17.00;99.90;;;;;;4969247;28;20034;-69
2021/06/05 05:04:59;;;;;;;49.72;25.85;;;17.00;99.90;;;;;;4968669;28;20022;-70
2021/06/05 05:07:25;;;;;;;47.97;23.38;;;17.10;99.90;;;;;;4975178;28;20035;-69
2021/06/05 05:09:50;;;;;;;45.53;22.92;;;17.00;99.90;;;;;;4976141;28;20118;-69
2021/06/05 05:12:16;;;;;;;49.55;24.25;;;17.00;99.90;;;;;;4962683;28;20118;-70
2021/06/05 05:14:41;;;;;;;46.03;24.75;;;16.90;99.90;;;;;;4975607;28;20019;-71
2021/06/05 05:17:07;;;;;;;47.15;23.95;;;17.00;99.90;;;;;;4967923;28;20038;-68
2021/06/05 05:19:33;;;;;;;38.22;22.02;;;16.90;99.90;;;;;;4977222;28;20113;-70
2021/06/05 05:21:59;;;;;;;43.50;22.65;;;16.90;99.90;;;;;;4973464;28;20110;-69
2021/06/05 05:24:25;;;;;;;44.78;23.63;;;16.80;99.90;;;;;;4975800;28;20066;-69
2021/06/05 05:26:51;;;;;;;41.95;21.67;;;16.80;99.90;;;;;;4973010;28;20037;-68
2021/06/05 05:29:17;;;;;;;42.75;21.02;;;16.80;99.90;;;;;;4973553;28;20090;-68
2021/06/05 05:31:43;;;;;;;40.33;21.17;;;16.80;99.90;;;;;;4978440;28;20105;-68
2021/06/05 05:34:09;;;;;;;38.28;21.17;;;16.90;99.90;;;;;;4976549;28;20081;-68
2021/06/05 05:36:37;;;;;;;41.42;20.02;;;16.90;99.90;;;;;;4977581;28;20060;-68
2021/06/05 05:39:09;;;;;;;33.80;20.70;;;16.90;99.90;;;;;;4963006;28;20506;-67
2021/06/05 05:41:35;;;;;;;37.80;19.02;;;16.90;99.90;;;;;;4972091;28;20031;-69
2021/06/05 05:44:00;;;;;;;35.47;19.27;;;16.90;99.90;;;;;;4969540;28;20015;-69
2021/06/05 05:46:26;;;;;;;35.78;20.45;;;16.90;99.90;;;;;;4974379;28;20027;-69
2021/06/05 05:48:52;;;;;;;39.65;21.02;;;16.90;99.90;;;;;;4964554;28;20034;-70
2021/06/05 05:51:19;;;;;;;32.70;18.95;;;17.00;99.90;;;;;;4968569;28;20050;-69
2021/06/05 05:53:45;;;;;;;34.05;19.30;;;17.00;99.90;;;;;;4967417;28;20034;-68
2021/06/05 05:56:14;;;;;;;33.88;19.77;;;17.00;99.90;;;;;;4965876;28;20105;-68
2021/06/05 05:58:44;;;;;;;32.17;19.13;;;17.00;99.90;;;;;;4963979;28;20038;-68
2021/06/05 06:01:11;;;;;;;31.33;18.35;;;17.10;99.90;;;;;;4963335;28;20042;-70
2021/06/05 06:03:38;;;;;;;34.33;18.50;;;17.20;99.90;;;;;;4964846;28;20026;-68
2021/06/05 06:06:06;;;;;;;27.58;17.63;;;17.20;99.90;;;;;;4965066;28;20030;-69
2021/06/05 06:08:32;;;;;;;31.95;17.27;;;17.20;99.90;;;;;;4967223;28;20070;-69
2021/06/05 06:10:57;;;;;;;25.67;17.70;;;17.20;99.90;;;;;;4963102;28;20019;-69
2021/06/05 06:13:23;;;;;;;24.70;16.58;;;17.20;99.90;;;;;;4966427;28;20034;-69
2021/06/05 06:15:49;;;;;;;26.98;17.10;;;17.30;99.90;;;;;;4965696;28;20030;-72
2021/06/05 06:18:15;;;;;;;27.77;17.67;;;17.40;99.90;;;;;;4965373;28;20038;-70
2021/06/05 06:20:43;;;;;;;25.88;16.52;;;17.40;99.90;;;;;;4962168;28;20031;-71
2021/06/05 06:23:19;;;;;;;25.83;15.73;;;17.40;99.90;;;;;;4962233;28;20105;-70
2021/06/05 06:25:49;;;;;;;35.03;18.08;;;17.50;99.90;;;;;;4964359;28;20039;-69
2021/06/05 06:28:15;;;;;;;31.95;16.92;;;17.50;99.90;;;;;;4965778;28;20039;-69
2021/06/05 06:30:43;;;;;;;26.30;17.40;;;17.50;99.90;;;;;;4961756;28;20038;-72
2021/06/05 06:33:12;;;;;;;25.73;16.38;;;17.50;99.90;;;;;;4964202;28;20042;-71
2021/06/05 06:35:38;;;;;;;25.80;17.17;;;17.50;99.90;;;;;;4965675;28;21335;-71
2021/06/05 06:38:09;;;;;;;28.02;17.48;;;17.50;99.90;;;;;;4977816;28;20164;-72
2021/06/05 06:40:35;;;;;;;30.98;18.20;;;17.40;99.90;;;;;;4968167;28;20124;-72
2021/06/05 06:43:03;;;;;;;26.10;16.65;;;17.40;99.90;;;;;;4967619;28;20063;-69
2021/06/05 06:45:29;;;;;;;27.75;17.42;;;17.50;99.90;;;;;;4964910;28;20034;-72
2021/06/05 06:47:56;;;;;;;28.40;17.75;;;17.40;99.90;;;;;;4964341;28;20038;-69
2021/06/05 06:50:24;;;;;;;27.40;17.77;;;17.50;99.90;;;;;;4967147;28;20023;-72
2021/06/05 06:52:50;;;;;;;26.92;17.30;;;17.40;99.90;;;;;;4968317;28;20038;-69
2021/06/05 06:55:16;;;;;;;26.77;17.02;;;17.40;99.90;;;;;;4966372;28;20062;-70
2021/06/05 06:57:42;;;;;;;26.75;17.00;;;17.40;99.90;;;;;;4965921;28;20473;-69
2021/06/05 07:00:13;;;;;;;25.42;17.88;;;17.40;99.90;;;;;;4967450;28;20050;-70
2021/06/05 07:02:38;;;;;;;27.67;17.33;;;17.40;99.90;;;;;;4966051;28;20106;-73
2021/06/05 07:05:06;;;;;;;30.02;19.20;;;17.30;99.90;;;;;;4968135;28;20553;-70
2021/06/05 07:07:31;;;;;;;31.38;18.55;;;17.20;99.90;;;;;;4964433;28;20065;-70
2021/06/05 07:09:57;;;;;;;29.52;18.27;;;17.20;99.90;;;;;;4962842;28;20031;-71
2021/06/05 07:12:24;;;;;;;31.25;18.02;;;17.20;99.90;;;;;;4963677;28;20494;-69
2021/06/05 07:14:50;;;;;;;28.00;18.55;;;17.20;99.90;;;;;;4966634;28;20254;-70
2021/06/05 07:17:16;;;;;;;27.35;18.95;;;17.20;99.90;;;;;;4965473;28;20116;-70
2021/06/05 07:19:42;;;;;;;33.35;18.70;;;17.20;99.90;;;;;;4969575;28;20506;-69
2021/06/05 07:22:07;;;;;;;29.90;19.23;;;17.20;99.90;;;;;;4966454;28;20019;-69
2021/06/05 07:24:33;;;;;;;34.25;18.40;;;17.10;99.90;;;;;;4966558;28;20035;-73
2021/06/05 07:26:59;;;;;;;34.95;20.30;;;17.10;99.90;;;;;;4967587;28;20073;-71
2021/06/05 07:29:24;;;;;;;28.85;19.85;;;17.00;99.90;;;;;;4965674;28;20660;-71
2021/06/05 07:31:52;;;;;;;28.40;17.77;;;17.00;99.90;;;;;;4965611;28;20042;-69
2021/06/05 07:34:21;;;;;;;;;;;17.10;99.90;;;;;;4968085;28;20065;-70
2021/06/05 07:36:49;;;;;;;32.05;21.38;;;17.10;99.90;;;;;;4967675;28;19918;-68
2021/06/05 07:39:18;;;;;;;31.30;20.40;;;17.20;99.90;;;;;;4967510;28;20034;-70
2021/06/05 07:41:43;;;;;;;31.00;20.83;;;17.30;99.90;;;;;;4966741;28;20104;-71
2021/06/05 07:44:10;;;;;;;31.98;20.05;;;17.20;99.90;;;;;;4966487;28;20026;-71
2021/06/05 07:46:41;;;;;;;30.25;18.15;;;17.10;99.90;;;;;;4967003;28;20038;-71
2021/06/05 07:49:07;;;;;;;30.48;20.25;;;17.10;99.90;;;;;;4968375;28;20085;-71
2021/06/05 07:51:32;;;;;;;29.70;19.75;;;17.00;99.90;;;;;;4967290;28;20038;-70
2021/06/05 07:53:58;;;;;;;33.42;21.33;;;17.10;99.90;;;;;;4968666;28;20027;-69
2021/06/05 07:56:24;;;;;;;27.35;18.50;;;17.20;99.90;;;;;;4969368;28;20468;-74
2021/06/05 07:58:50;;;;;;;24.95;17.80;;;17.20;99.90;;;;;;4968743;28;20019;-70
2021/06/05 08:01:15;;;;;;;25.25;18.92;;;17.30;99.90;;;;;;4967889;28;20722;-69
2021/06/05 08:03:41;;;;;;;23.25;17.13;;;17.30;99.90;;;;;;4967281;28;20027;-69
2021/06/05 08:06:07;;;;;;;24.70;17.20;;;17.30;99.90;;;;;;4966859;28;20483;-71
2021/06/05 08:08:32;;;;;;;25.05;17.80;;;17.40;99.90;;;;;;4981533;28;20026;-73
2021/06/05 08:10:58;;;;;;;21.75;16.33;;;17.50;99.90;;;;;;4967385;28;20027;-69
2021/06/05 08:13:24;;;;;;;22.83;16.38;;;17.50;99.90;;;;;;4968718;28;20037;-70
2021/06/05 08:15:51;;;;;;;21.88;15.82;;;17.50;99.90;;;;;;4974323;28;20055;-69
2021/06/05 08:18:18;;;;;;;22.50;16.33;;;17.60;99.90;;;;;;4974325;28;20031;-69
2021/06/05 08:20:52;;;;;;;24.98;15.82;;;17.70;99.90;;;;;;4974247;28;20035;-69
2021/06/05 08:23:19;;;;;;;19.52;15.40;;;17.70;99.90;;;;;;4977921;28;20027;-69
2021/06/05 08:25:45;;;;;;;22.23;16.55;;;17.70;99.90;;;;;;4970278;28;20046;-69
2021/06/05 08:28:12;;;;;;;26.42;16.55;;;17.70;99.90;;;;;;4971054;28;20055;-71
2021/06/05 08:30:44;;;;;;;22.92;16.55;;;17.70;99.90;;;;;;4973300;28;20065;-69
2021/06/05 08:33:11;;;;;;;22.17;15.93;;;17.70;99.90;;;;;;4962922;28;20033;-70
2021/06/05 08:35:37;;;;;;;23.17;15.45;;;17.70;99.90;;;;;;4966282;28;20477;-70
2021/06/05 08:38:04;;;;;;;25.10;15.20;;;17.80;99.90;;;;;;4970721;28;20154;-69
2021/06/05 08:40:50;;;;;;;18.80;14.60;;;17.80;99.90;;;;;;4972725;28;20035;-70
2021/06/05 08:43:26;;;;;;;18.13;14.30;;;17.80;99.90;;;;;;4972214;28;20097;-71
2021/06/05 08:45:52;;;;;;;21.48;16.08;;;17.80;99.90;;;;;;4971847;28;20392;-70
2021/06/05 08:48:20;;;;;;;21.13;15.27;;;17.70;99.90;;;;;;4975885;28;20026;-72
2021/06/05 08:50:46;;;;;;;;;;;17.60;99.90;;;;;;4972794;28;20023;-70
2021/06/05 08:53:23;;;;;;;16.83;14.18;;;17.70;99.90;;;;;;4971824;28;19917;-72
2021/06/05 08:55:55;;;;;;;18.77;15.63;;;17.70;99.90;;;;;;4975469;28;20034;-70
2021/06/05 08:58:33;;;;;;;28.15;16.90;;;17.70;99.90;;;;;;4974848;28;20045;-71
2021/06/05 09:01:05;;;;;;;24.83;16.48;;;17.70;99.90;;;;;;4974537;28;20027;-71
2021/06/05 09:03:33;;;;;;;22.35;17.23;;;17.70;99.90;;;;;;4972864;28;20506;-70
2021/06/05 09:06:09;;;;;;;24.20;16.83;;;17.60;99.90;;;;;;4974339;28;20031;-71
2021/06/05 09:08:35;;;;;;;23.17;16.88;;;17.50;99.90;;;;;;4975679;28;20536;-71
2021/06/05 09:11:04;;;;;;;20.88;16.65;;;17.50;99.90;;;;;;4976107;28;20121;-70
2021/06/05 09:13:30;;;;;;;21.05;15.35;;;17.60;99.90;;;;;;4974189;28;20078;-71
2021/06/05 09:16:17;;;;;;;23.65;17.25;;;17.60;99.90;;;;;;4974429;28;20239;-70
2021/06/05 09:18:46;;;;;;;22.02;17.13;;;17.80;99.90;;;;;;4979880;28;20026;-71
2021/06/05 09:21:12;;;;;;;21.65;15.57;;;17.90;99.90;;;;;;4963347;28;20019;-70
2021/06/05 09:23:38;;;;;;;22.92;15.77;;;17.90;99.90;;;;;;4966317;28;20093;-70
2021/06/05 09:26:27;;;;;;;27.10;16.58;;;17.90;99.90;;;;;;4979053;28;20039;-71
2021/06/05 09:29:17;;;;;;;25.00;16.13;;;18.00;99.90;;;;;;4965642;28;20034;-73
2021/06/05 09:32:09;;;;;;;22.05;15.68;;;18.10;99.90;;;;;;4970208;28;20030;-70
2021/06/05 09:34:40;;;;;;;20.02;15.40;;;18.20;99.90;;;;;;4974065;28;20118;-70
2021/06/05 09:37:24;;;;;;;27.52;19.10;;;18.10;99.90;;;;;;4968114;28;20039;-70
2021/06/05 09:40:08;;;;;;;21.10;17.75;;;17.90;99.90;;;;;;4971537;28;20038;-71
2021/06/05 09:42:41;;;;;;;25.27;18.42;;;17.80;99.90;;;;;;4971787;28;20380;-71
2021/06/05 09:45:30;;;;;;;28.17;19.15;;;17.80;99.90;;;;;;4972574;28;20072;-71
2021/06/05 09:48:22;;;;;;;24.38;18.73;;;17.80;99.90;;;;;;4972014;28;20047;-72
2021/06/05 09:50:51;;;;;;;25.23;18.05;;;17.80;99.90;;;;;;4987647;28;20470;-72
2021/06/05 09:53:20;;;;;;;29.30;18.75;;;17.80;99.90;;;;;;4973751;28;20475;-71
2021/06/05 09:55:47;;;;;;;24.15;18.23;;;17.90;99.90;;;;;;4972503;28;20035;-72
2021/06/05 09:58:37;;;;;;;25.02;18.65;;;17.90;99.90;;;;;;4972007;28;20015;-72
2021/06/05 10:01:25;;;;;;;26.08;18.10;;;18.10;99.90;;;;;;4967825;28;20062;-72
2021/06/05 10:03:57;;;;;;;24.27;17.92;;;18.30;99.90;;;;;;4964263;28;20037;-72
2021/06/05 10:06:38;;;;;;;24.92;18.45;;;18.30;99.90;;;;;;4969116;28;20039;-72
2021/06/05 10:09:24;;;;;;;27.02;19.23;;;18.30;99.90;;;;;;4972562;28;20027;-72
2021/06/05 10:11:51;;;;;;;36.42;23.55;;;18.50;99.90;;;;;;4972960;28;20460;-72
2021/06/05 10:14:21;;;;;;;36.50;23.90;;;18.50;99.90;;;;;;4976250;28;20039;-71
2021/06/05 10:17:00;;;;;;;33.28;23.92;;;18.50;99.90;;;;;;4978263;28;20054;-72
2021/06/05 10:19:40;;;;;;;32.42;24.20;;;18.50;99.90;;;;;;4976336;28;20019;-72
2021/06/05 10:22:06;;;;;;;43.38;24.33;;;18.70;99.90;;;;;;4977771;28;20223;-71
2021/06/05 10:24:54;;;;;;;36.42;24.38;;;18.90;99.90;;;;;;4977955;28;20030;-71
2021/06/05 10:27:29;;;;;;;36.33;25.10;;;19.00;99.90;;;;;;4978134;28;20365;-72
2021/06/05 10:29:59;;;;;;;40.35;26.73;;;19.00;99.90;;;;;;4977291;28;20058;-72
2021/06/05 10:32:31;;;;;;;46.35;28.75;;;18.90;99.90;;;;;;4980511;28;20076;-72
2021/06/05 10:35:22;;;;;;;51.58;32.90;;;18.70;99.90;;;;;;4986087;28;20057;-73
2021/06/05 10:37:48;;;;;;;48.88;29.67;;;18.50;99.90;;;;;;4982191;28;20058;-72
2021/06/05 10:40:21;;;;;;;53.58;28.75;;;18.40;99.90;;;;;;4986052;28;20047;-72
2021/06/05 10:42:50;;;;;;;51.72;26.17;;;18.20;99.90;;;;;;4984794;28;20023;-72
2021/06/05 10:45:40;;;;;;;54.22;26.23;;;18.10;99.90;;;;;;4987243;28;20031;-72
2021/06/05 10:48:26;;;;;;;47.45;24.23;;;17.90;99.90;;;;;;4980454;28;20023;-72
2021/06/05 10:51:08;;;;;;;53.03;25.17;;;17.80;99.90;;;;;;4985888;28;20122;-72
2021/06/05 10:53:50;;;;;;;57.38;25.10;;;17.70;99.90;;;;;;4985741;28;20078;-73
2021/06/05 10:56:20;;;;;;;45.38;22.48;;;17.50;99.90;;;;;;4980789;28;20039;-73
2021/06/05 10:58:50;;;;;;;48.42;22.13;;;17.40;99.90;;;;;;4994840;28;20022;-73
2021/06/05 11:01:22;;;;;;;41.17;20.73;;;17.30;99.90;;;;;;4994614;28;20113;-74
2021/06/05 11:03:51;;;;;;;41.67;20.70;;;17.30;99.90;;;;;;4992675;28;20050;-70
2021/06/05 11:06:23;;;;;;;40.95;19.83;;;17.20;99.90;;;;;;4991032;28;20157;-74
2021/06/05 11:09:00;;;;;;;37.90;19.92;;;17.20;99.90;;;;;;4995800;28;20101;-72
2021/06/05 11:11:42;;;;;;;45.63;21.02;;;17.10;99.90;;;;;;4987356;28;20047;-71
2021/06/05 11:14:19;;;;;;;39.78;20.92;;;17.20;99.90;;;;;;4991711;28;20019;-70
2021/06/05 11:16:57;;;;;;;33.05;18.58;;;17.00;99.90;;;;;;4980176;28;20046;-73
2021/06/05 11:19:35;;;;;;;32.28;17.85;;;17.00;99.90;;;;;;4961515;28;20425;-72
2021/06/05 11:22:05;;;;;;;;;;;16.90;99.90;;;;;;4977364;28;20027;-73
2021/06/05 11:24:31;;;;;;;40.50;18.35;;;16.90;99.90;;;;;;4979588;28;19910;-73
2021/06/05 11:26:59;;;;;;;33.33;18.48;;;16.80;99.90;;;;;;4977541;28;20038;-72
2021/06/05 11:29:28;;;;;;;38.58;17.45;;;16.80;99.90;;;;;;4977489;28;20045;-72
2021/06/05 11:32:07;;;;;;;31.67;17.55;;;16.90;99.90;;;;;;4977655;28;20105;-72
2021/06/05 11:34:32;;;;;;;35.22;18.48;;;16.90;99.90;;;;;;4976820;28;20147;-72
2021/06/05 11:37:00;;;;;;;36.13;18.92;;;16.90;99.90;;;;;;4975955;28;20525;-73
2021/06/05 11:39:26;;;;;;;36.35;19.52;;;16.90;99.90;;;;;;4976656;28;20030;-72
2021/06/05 11:41:56;;;;;;;40.50;19.63;;;16.90;99.90;;;;;;4976579;28;20026;-72
2021/06/05 11:44:30;;;;;;;40.08;20.23;;;16.90;99.90;;;;;;4976673;28;20065;-73
2021/06/05 11:47:17;;;;;;;37.53;19.50;;;16.90;99.90;;;;;;4975158;28;20089;-72
2021/06/05 11:49:55;;;;;;;33.33;19.40;;;16.90;99.90;;;;;;4972351;28;20054;-73
2021/06/05 11:52:26;;;;;;;35.25;19.15;;;16.80;99.90;;;;;;4974343;28;20027;-72
2021/06/05 11:55:12;;;;;;;36.15;19.30;;;16.70;99.90;;;;;;4975032;28;20054;-72
2021/06/05 11:57:43;;;;;;;34.88;17.60;;;16.80;99.90;;;;;;4970161;28;20049;-72
2021/06/05 12:00:17;;;;;;;33.38;18.40;;;16.90;99.90;;;;;;4990086;28;20440;-72
2021/06/05 12:02:46;;;;;;;32.55;18.50;;;17.00;99.90;;;;;;4975074;28;20026;-72
2021/06/05 12:05:31;;;;;;;30.10;16.98;;;17.10;99.90;;;;;;4974255;28;20391;-72
2021/06/05 12:07:57;;;;;;;28.85;17.42;;;17.30;99.90;;;;;;4975888;28;20031;-71
2021/06/05 12:10:41;;;;;;;30.30;16.45;;;17.30;99.90;;;;;;4976237;28;20033;-72
2021/06/05 12:13:22;;;;;;;32.45;18.30;;;17.20;99.90;;;;;;4974893;28;20053;-71
2021/06/05 12:15:50;;;;;;;31.65;17.70;;;17.10;99.90;;;;;;4975492;28;20019;-71
2021/06/05 12:18:23;;;;;;;32.13;16.70;;;17.10;99.90;;;;;;4975915;28;20027;-73
2021/06/05 12:21:30;;;;;;;32.05;16.92;;;17.10;99.90;;;;;;4974577;28;20018;-72
2021/06/05 12:23:57;;;;;;;36.03;18.00;;;17.10;99.90;;;;;;4975786;28;20031;-71
2021/06/05 12:26:27;;;;;;;38.08;16.75;;;17.00;99.90;;;;;;4974077;28;20031;-72
2021/06/05 12:29:12;;;;;;;36.35;19.02;;;17.20;99.90;;;;;;4975118;28;20448;-72
2021/06/05 12:31:44;;;;;;;34.67;17.10;;;17.30;99.90;;;;;;4973425;28;20031;-72
2021/06/05 12:34:11;;;;;;;38.03;18.23;;;17.40;99.90;;;;;;4972112;28;20026;-72
2021/06/05 12:36:43;;;;;;;40.08;18.70;;;17.40;99.90;;;;;;4973734;28;20480;-71
2021/06/05 12:39:41;;;;;;;41.60;18.45;;;17.40;99.90;;;;;;4974544;28;20034;-72
2021/06/05 12:42:09;;;;;;;39.80;17.67;;;17.20;99.90;;;;;;4973603;28;20086;-72
2021/06/05 12:44:36;;;;;;;37.55;18.73;;;17.20;99.90;;;;;;4986480;28;20035;-72
2021/06/05 12:47:10;;;;;;;37.30;18.58;;;17.20;99.90;;;;;;4974611;28;20026;-71